Time;durP1;ratioP1;P1;durP2;ratioP2;P2;SDS_P1;SDS_P2;PMS_P1;PMS_P2;Temp;Humidity;BMP_temperature;BMP_pressure;BME280_temperature;BME280_humidity;BME280_pressure;Samples;Min_cycle;Max_cycle;Signal;HPM_P1;HPM_P2
2022/12/08 00:00:19;;;;;;;3.50;2.13;;;;;;;3.93;100.00;99921.41;5005313;28;20041;-66
2022/12/08 00:02:44;;;;;;;7.65;3.55;;;;;;;3.83;100.00;99921.84;5005743;28;20065;-66
2022/12/08 00:10:37;;;;;;;5.72;3.50;;;;;;;3.99;99.78;99914.75;5009688;28;20036;-66
2022/12/08 00:13:03;;;;;;;5.50;2.53;;;;;;;3.96;100.00;99915.44;5011963;28;20117;-65
2022/12/08 00:15:28;;;;;;;7.47;3.55;;;;;;;3.93;99.79;99910.75;5010020;28;20109;-65
2022/12/08 00:17:54;;;;;;;6.82;4.18;;;;;;;3.91;99.94;99909.53;5010007;28;20120;-66
2022/12/08 00:20:19;;;;;;;7.00;3.03;;;;;;;4.01;99.81;99909.09;5008345;28;20403;-66
2022/12/08 00:22:47;;;;;;;8.52;3.70;;;;;;;4.09;99.71;99900.25;5010250;28;20045;-65
2022/12/08 00:25:13;;;;;;;6.22;3.08;;;;;;;3.80;100.00;99903.03;5009342;28;20493;-66
2022/12/08 00:27:39;;;;;;;6.88;3.28;;;;;;;3.92;99.95;99903.88;5005602;28;20060;-66
2022/12/08 00:30:05;;;;;;;6.45;3.08;;;;;;;3.94;100.00;99890.22;5001985;28;20037;-65
2022/12/08 00:32:31;;;;;;;6.50;3.05;;;;;;;4.05;99.96;99892.13;5008754;28;20087;-66
2022/12/08 00:34:56;;;;;;;5.82;3.17;;;;;;;3.98;100.00;99886.59;5004275;28;20021;-66
2022/12/08 00:37:22;;;;;;;6.65;3.08;;;;;;;4.06;100.00;99885.72;5010568;28;20044;-66
2022/12/08 00:39:47;;;;;;;7.65;3.75;;;;;;;4.04;99.79;99885.28;5010132;28;20042;-66
2022/12/08 00:42:13;;;;;;;11.25;4.28;;;;;;;3.95;100.00;99873.16;5006357;28;20034;-65
2022/12/08 00:44:43;;;;;;;5.32;3.50;;;;;;;3.89;100.00;99872.56;5010912;28;20030;-66
2022/12/08 00:47:09;;;;;;;8.85;4.13;;;;;;;3.96;100.00;99866.72;5009605;28;20120;-66
2022/12/08 00:49:35;;;;;;;6.72;3.30;;;;;;;3.98;100.00;99869.81;5010499;28;20095;-66
2022/12/08 00:52:20;;;;;;;4.55;2.45;;;;;;;4.09;100.00;99866.41;4992492;28;20025;-65
2022/12/08 00:54:46;;;;;;;8.88;4.30;;;;;;;4.16;100.00;99871.19;4925349;29;20062;-66
2022/12/08 00:57:11;;;;;;;7.18;3.35;;;;;;;4.06;99.89;99856.41;4943286;28;20054;-66
2022/12/08 00:59:37;;;;;;;7.47;3.42;;;;;;;4.11;100.00;99866.06;4930469;29;20043;-65
2022/12/08 01:02:02;;;;;;;8.88;3.72;;;;;;;4.15;100.00;99857.09;4933730;29;20039;-66
2022/12/08 01:04:28;;;;;;;4.15;2.50;;;;;;;4.28;99.42;99865.84;4948343;28;20046;-65
2022/12/08 01:06:53;;;;;;;8.00;3.83;;;;;;;4.29;99.35;99864.75;4947873;28;20098;-66
2022/12/08 01:09:19;;;;;;;10.30;3.90;;;;;;;4.27;99.66;99864.31;4932937;29;20130;-66
2022/12/08 01:11:45;;;;;;;5.43;3.22;;;;;;;4.14;99.85;99857.44;4948686;28;20515;-66
2022/12/08 01:14:11;;;;;;;7.63;3.72;;;;;;;4.22;100.00;99851.97;4943046;28;20035;-66
2022/12/08 01:16:37;;;;;;;6.65;3.03;;;;;;;4.32;99.92;99864.88;4938530;29;20038;-66
2022/12/08 01:19:03;;;;;;;6.15;3.08;;;;;;;4.39;99.98;99859.75;4933088;29;20126;-66
2022/12/08 01:21:29;;;;;;;7.20;3.35;;;;;;;4.48;99.33;99862.31;4941227;28;20628;-65
2022/12/08 01:23:54;;;;;;;8.57;3.30;;;;;;;4.44;99.31;99856.09;4946197;28;20031;-66
2022/12/08 01:26:20;;;;;;;5.15;2.92;;;;;;;4.46;99.25;99852.00;4946525;28;20055;-66
2022/12/08 01:28:46;;;;;;;5.10;3.38;;;;;;;4.47;99.29;99858.88;4948438;28;20039;-66
2022/12/08 01:31:16;;;;;;;6.80;3.40;;;;;;;4.53;98.81;99862.09;4950702;28;20056;-66
2022/12/08 01:33:42;;;;;;;10.27;4.55;;;;;;;4.42;99.58;99845.00;5005550;28;20037;-66
2022/12/08 01:36:17;;;;;;;5.00;3.17;;;;;;;4.56;99.03;99848.09;5010356;28;20092;-66
2022/12/08 01:38:42;;;;;;;6.00;3.28;;;;;;;4.60;98.64;99849.00;5009476;28;20045;-67
2022/12/08 01:41:12;;;;;;;8.50;3.58;;;;;;;4.50;98.60;99838.78;5010886;28;20037;-66
2022/12/08 01:43:59;;;;;;;5.63;3.38;;;;;;;4.44;99.50;99838.22;5009226;28;20116;-67
2022/12/08 01:46:27;;;;;;;6.13;3.60;;;;;;;4.55;99.22;99835.88;4994769;28;20045;-66
2022/12/08 01:49:04;;;;;;;6.60;3.20;;;;;;;4.57;99.08;99839.00;5008787;28;20387;-66
2022/12/08 01:51:34;;;;;;;7.75;3.38;;;;;;;4.59;98.99;99834.09;5008538;28;20533;-67
2022/12/08 01:54:02;;;;;;;6.25;3.45;;;;;;;4.61;99.35;99823.13;5010879;28;20501;-67
2022/12/08 01:56:47;;;;;;;8.85;4.35;;;;;;;4.55;99.30;99833.22;5009504;28;20030;-67
2022/12/08 01:59:13;;;;;;;8.48;3.60;;;;;;;4.56;99.21;99821.47;5007826;28;20029;-66
2022/12/08 02:01:38;;;;;;;7.20;3.78;;;;;;;4.59;99.41;99823.44;5005740;28;20402;-66
2022/12/08 02:04:05;;;;;;;6.15;3.58;;;;;;;4.50;99.61;99828.13;5009058;28;20109;-65
2022/12/08 02:06:35;;;;;;;5.38;3.03;;;;;;;4.70;99.55;99826.44;5009109;28;20061;-66
2022/12/08 02:09:02;;;;;;;9.48;4.32;;;;;;;4.73;99.50;99820.41;5009466;28;20037;-66
2022/12/08 02:11:28;;;;;;;6.80;3.45;;;;;;;4.63;99.56;99816.31;4999663;28;20382;-66
2022/12/08 02:13:55;;;;;;;6.75;2.83;;;;;;;4.69;99.55;99820.31;5008545;28;20034;-67
2022/12/08 02:16:43;;;;;;;7.90;4.20;;;;;;;4.64;99.22;99809.91;5008637;28;20026;-66
2022/12/08 02:19:33;;;;;;;8.02;4.10;;;;;;;4.57;99.55;99812.34;4992983;28;20442;-67
2022/12/08 02:22:04;;;;;;;8.05;3.85;;;;;;;4.50;99.41;99812.13;4998231;28;20037;-67
2022/12/08 02:24:54;;;;;;;7.72;3.40;;;;;;;4.45;99.46;99805.13;4980055;28;20115;-66
2022/12/08 02:27:40;;;;;;;5.38;3.40;;;;;;;4.54;99.92;99802.34;5006682;28;20072;-68
2022/12/08 02:30:19;;;;;;;5.78;3.40;;;;;;;4.21;99.58;99799.81;4994645;28;20037;-66
2022/12/08 02:33:04;;;;;;;4.68;3.13;;;;;;;4.19;100.00;99795.94;5003121;28;20030;-65
2022/12/08 02:35:29;;;;;;;7.43;4.10;;;;;;;4.18;100.00;99800.47;5003846;28;20038;-67
2022/12/08 02:38:12;;;;;;;7.22;3.65;;;;;;;4.15;100.00;99797.69;5008819;28;20026;-65
2022/12/08 02:40:56;;;;;;;3.70;2.70;;;;;;;4.01;100.00;99795.38;5010871;28;20438;-65
2022/12/08 02:43:27;;;;;;;7.25;4.53;;;;;;;4.09;100.00;99785.72;5013042;28;20101;-66
2022/12/08 02:46:01;;;;;;;6.18;3.03;;;;;;;4.16;100.00;99781.38;5013343;28;20136;-66
2022/12/08 02:48:28;;;;;;;5.25;3.30;;;;;;;4.12;100.00;99783.16;5010835;28;20041;-65
2022/12/08 02:50:53;;;;;;;5.18;2.70;;;;;;;4.19;100.00;99788.72;4993137;28;20657;-66
2022/12/08 02:53:19;;;;;;;7.13;3.38;;;;;;;4.30;100.00;99781.03;5011837;28;20122;-66
2022/12/08 02:56:03;;;;;;;5.75;3.25;;;;;;;4.40;100.00;99777.94;5009999;28;20030;-65
2022/12/08 02:58:54;;;;;;;4.18;2.55;;;;;;;4.40;99.60;99778.72;5006755;28;20061;-66
2022/12/08 03:01:28;;;;;;;;;;;;;;;4.34;99.88;99774.72;4984330;28;20049;-66
2022/12/08 03:04:11;;;;;;;6.57;3.75;;;;;;;4.23;100.00;99760.31;4995250;28;20378;-66
2022/12/08 03:06:49;;;;;;;5.05;2.63;;;;;;;4.34;100.00;99758.72;5001783;28;20052;-66
2022/12/08 03:09:36;;;;;;;7.95;3.42;;;;;;;4.41;100.00;99755.50;5009849;28;20626;-67
2022/12/08 03:12:18;;;;;;;9.85;3.30;;;;;;;4.44;100.00;99757.50;5003093;28;20068;-66
2022/12/08 03:14:49;;;;;;;11.80;3.40;;;;;;;4.42;100.00;99749.84;5011852;28;20030;-66
2022/12/08 03:17:18;;;;;;;7.00;3.85;;;;;;;4.49;100.00;99760.69;5010879;28;20030;-66
2022/12/08 03:19:47;;;;;;;5.78;2.33;;;;;;;4.51;100.00;99745.16;5010332;28;20520;-67
2022/12/08 03:22:18;;;;;;;8.05;3.35;;;;;;;4.56;100.00;99747.59;5004138;28;20072;-66
2022/12/08 03:24:45;;;;;;;8.80;4.07;;;;;;;4.61;100.00;99743.91;5011306;28;20038;-66
2022/12/08 03:27:18;;;;;;;5.40;3.50;;;;;;;4.64;99.47;99743.25;5012076;28;20057;-66
2022/12/08 03:29:45;;;;;;;6.15;3.17;;;;;;;4.50;100.00;99740.94;5008833;28;20040;-66
2022/12/08 03:32:33;;;;;;;7.15;2.33;;;;;;;4.55;100.00;99738.03;4993558;28;20038;-66
2022/12/08 03:35:02;;;;;;;4.93;3.13;;;;;;;4.30;100.00;99733.88;4973391;28;20136;-66
2022/12/08 03:37:28;;;;;;;6.68;2.95;;;;;;;4.45;100.00;99730.50;5000203;28;20454;-66
2022/12/08 03:39:54;;;;;;;5.82;3.15;;;;;;;4.57;100.00;99737.69;5009780;28;20034;-66
2022/12/08 03:42:19;;;;;;;5.07;2.92;;;;;;;4.57;100.00;99732.38;5011323;28;20042;-66
2022/12/08 03:44:45;;;;;;;4.38;2.80;;;;;;;4.72;100.00;99738.88;4998992;22;20053;-65
2022/12/08 03:47:10;;;;;;;6.15;2.97;;;;;;;4.61;100.00;99727.91;4989402;28;20030;-65
2022/12/08 03:49:36;;;;;;;3.40;2.17;;;;;;;4.57;100.00;99729.69;4994688;28;20031;-64
2022/12/08 03:52:01;;;;;;;2.42;1.83;;;;;;;4.66;100.00;99719.69;4994493;28;20041;-65
2022/12/08 03:54:26;;;;;;;3.78;2.13;;;;;;;4.84;100.00;99717.53;4989118;28;20407;-65
2022/12/08 03:56:52;;;;;;;2.80;2.47;;;;;;;4.82;100.00;99720.50;4986707;28;20029;-65
2022/12/08 03:59:17;;;;;;;3.78;3.08;;;;;;;4.93;100.00;99721.59;4994394;28;20034;-65
2022/12/08 04:01:43;;;;;;;5.18;2.45;;;;;;;4.78;100.00;99716.22;4992485;28;20068;-65
2022/12/08 04:04:08;;;;;;;2.50;1.83;;;;;;;4.95;100.00;99713.25;4989611;28;20403;-65
2022/12/08 04:06:34;;;;;;;2.85;2.10;;;;;;;4.92;99.43;99706.69;4986379;28;20510;-65
2022/12/08 04:09:00;;;;;;;5.68;2.45;;;;;;;4.94;99.54;99711.69;4989690;28;20107;-65
2022/12/08 04:11:25;;;;;;;2.83;2.30;;;;;;;4.84;99.84;99714.84;4990785;28;20531;-65
2022/12/08 04:13:51;;;;;;;3.30;2.05;;;;;;;4.72;99.94;99705.00;4981981;28;20109;-65
2022/12/08 04:16:20;;;;;;;3.13;1.90;;;;;;;4.74;100.00;99710.78;4986303;28;20084;-65
2022/12/08 04:18:46;;;;;;;3.10;1.83;;;;;;;4.65;99.55;99706.69;4987847;28;20037;-65
2022/12/08 04:21:11;;;;;;;6.68;2.17;;;;;;;4.76;100.00;99705.91;4975464;28;20403;-65
2022/12/08 04:23:37;;;;;;;2.97;1.58;;;;;;;4.88;100.00;99705.06;4984340;28;20030;-65
2022/12/08 04:26:03;;;;;;;3.28;2.20;;;;;;;4.91;100.00;99705.16;4989376;28;20391;-63
2022/12/08 04:28:28;;;;;;;1.85;1.40;;;;;;;4.88;99.76;99708.50;4985634;28;20065;-65
2022/12/08 04:30:54;;;;;;;1.35;1.25;;;;;;;5.01;99.77;99691.34;4989652;28;20034;-66
2022/12/08 04:33:19;;;;;;;2.10;1.40;;;;;;;4.88;99.54;99700.50;4965089;28;20035;-65
2022/12/08 04:35:45;;;;;;;4.60;1.70;;;;;;;4.90;99.91;99695.59;4974987;28;20419;-64
2022/12/08 04:38:11;;;;;;;2.15;1.25;;;;;;;4.85;99.85;99701.19;4976070;28;20038;-66
2022/12/08 04:40:36;;;;;;;2.90;1.80;;;;;;;4.89;99.37;99703.94;4985958;28;20038;-66
2022/12/08 04:43:02;;;;;;;9.70;2.22;;;;;;;4.74;100.00;99707.34;4976001;28;20062;-65
2022/12/08 04:45:27;;;;;;;2.92;2.08;;;;;;;4.86;99.98;99697.38;5009063;28;20053;-66
2022/12/08 04:47:52;;;;;;;2.45;1.20;;;;;;;4.78;100.00;99706.31;4993593;28;20141;-65
2022/12/08 04:50:18;;;;;;;2.72;2.00;;;;;;;4.84;100.00;99707.63;5001233;28;20087;-65
2022/12/08 04:52:43;;;;;;;4.68;2.00;;;;;;;4.91;99.29;99702.50;5007690;28;20030;-64
2022/12/08 04:55:09;;;;;;;1.67;1.52;;;;;;;4.64;99.82;99700.59;5010384;28;20042;-65
2022/12/08 04:57:34;;;;;;;2.08;1.38;;;;;;;4.79;99.87;99707.88;5019622;28;20029;-64
2022/12/08 05:00:00;;;;;;;3.65;1.60;;;;;;;4.80;99.81;99698.75;5013195;28;20026;-64
2022/12/08 05:02:25;;;;;;;2.88;1.75;;;;;;;4.59;100.00;99700.81;5018328;28;20057;-65
2022/12/08 05:04:51;;;;;;;2.58;1.60;;;;;;;4.82;100.00;99698.41;5013552;28;20124;-66
2022/12/08 05:07:16;;;;;;;2.05;1.30;;;;;;;4.81;100.00;99694.97;5008110;28;20062;-64
2022/12/08 05:09:41;;;;;;;1.98;1.80;;;;;;;4.77;100.00;99683.44;5006389;28;20034;-66
2022/12/08 05:12:07;;;;;;;2.90;1.63;;;;;;;4.89;99.87;99693.28;5010827;28;20030;-66
2022/12/08 05:14:32;;;;;;;1.92;1.30;;;;;;;4.87;99.01;99682.94;4999843;28;20030;-64
2022/12/08 05:16:58;;;;;;;2.35;1.65;;;;;;;4.83;99.33;99686.63;5008539;28;20084;-66
2022/12/08 05:19:23;;;;;;;2.42;1.45;;;;;;;4.79;99.41;99680.41;5005868;28;20060;-66
2022/12/08 05:21:49;;;;;;;1.45;1.08;;;;;;;4.90;99.24;99692.91;5016079;28;20033;-64
2022/12/08 05:24:14;;;;;;;3.17;1.92;;;;;;;4.87;99.01;99688.28;5014212;28;20390;-67
2022/12/08 05:26:40;;;;;;;2.47;1.65;;;;;;;4.91;98.94;99686.50;5015933;28;20433;-66
2022/12/08 05:29:05;;;;;;;0.68;0.68;;;;;;;5.01;98.91;99699.34;5001454;28;20061;-65
2022/12/08 05:31:31;;;;;;;1.40;1.30;;;;;;;4.89;98.51;99691.38;5011825;28;20405;-65
2022/12/08 05:33:56;;;;;;;1.00;0.80;;;;;;;5.04;98.56;99697.88;5013726;28;20053;-66
2022/12/08 05:36:22;;;;;;;1.38;1.10;;;;;;;4.93;98.43;99697.59;5007976;28;20054;-65
2022/12/08 05:38:47;;;;;;;4.18;1.48;;;;;;;4.99;98.87;99693.56;5016617;28;20556;-65
2022/12/08 05:41:17;;;;;;;2.65;1.20;;;;;;;4.97;98.58;99687.78;5012163;28;20033;-66
2022/12/08 05:43:46;;;;;;;1.48;1.00;;;;;;;5.04;98.53;99689.84;5032539;28;20052;-66
2022/12/08 05:46:12;;;;;;;1.63;1.52;;;;;;;4.97;97.78;99690.47;5016176;28;20053;-65
2022/12/08 05:48:38;;;;;;;2.65;1.40;;;;;;;5.01;98.65;99693.22;5000668;28;20033;-65
2022/12/08 05:51:04;;;;;;;1.35;1.23;;;;;;;4.98;98.45;99678.66;5013780;28;20031;-65
2022/12/08 05:53:30;;;;;;;2.28;1.30;;;;;;;4.96;98.51;99680.13;5004633;28;20049;-66
2022/12/08 05:55:55;;;;;;;1.40;1.10;;;;;;;5.02;98.37;99676.09;4994532;28;20118;-66
2022/12/08 05:58:22;;;;;;;1.35;1.23;;;;;;;5.06;99.06;99675.06;5011947;28;20060;-66
2022/12/08 06:00:48;;;;;;;1.48;1.17;;;;;;;4.98;98.22;99684.00;4988515;28;20121;-66
2022/12/08 06:03:16;;;;;;;2.53;1.40;;;;;;;5.03;98.45;99691.00;5017016;28;20407;-66
2022/12/08 06:05:43;;;;;;;1.80;1.05;;;;;;;5.12;98.24;99694.25;5004553;28;20025;-66
2022/12/08 06:08:10;;;;;;;1.00;1.00;;;;;;;5.12;98.20;99700.38;4988675;28;20030;-66
2022/12/08 06:10:39;;;;;;;2.70;1.33;;;;;;;5.16;97.82;99695.91;4999831;28;20025;-66
2022/12/08 06:13:05;;;;;;;2.08;1.70;;;;;;;5.14;97.43;99700.03;4995821;28;20097;-66
2022/12/08 06:15:30;;;;;;;2.10;1.45;;;;;;;5.16;97.29;99709.25;5018408;28;20031;-66
2022/12/08 06:17:55;;;;;;;2.35;1.60;;;;;;;5.15;97.76;99713.03;5001728;28;20041;-66
2022/12/08 06:20:21;;;;;;;2.40;1.20;;;;;;;5.15;97.42;99705.03;5002351;28;20057;-66
2022/12/08 06:22:46;;;;;;;2.05;1.30;;;;;;;5.15;97.21;99701.59;5012688;28;20026;-67
2022/12/08 06:25:12;;;;;;;2.45;1.35;;;;;;;5.11;97.34;99706.06;5010165;28;20550;-65
2022/12/08 06:27:37;;;;;;;1.65;1.45;;;;;;;5.15;97.13;99709.59;4999894;28;20034;-66
2022/12/08 06:30:03;;;;;;;3.15;1.70;;;;;;;5.12;97.50;99718.28;4991980;28;20049;-66
2022/12/08 06:32:29;;;;;;;2.08;1.13;;;;;;;5.15;97.37;99710.38;5015362;28;20841;-68
2022/12/08 06:34:54;;;;;;;2.15;1.45;;;;;;;5.08;97.23;99709.41;5020350;28;20057;-66
2022/12/08 06:37:20;;;;;;;2.08;1.40;;;;;;;5.10;97.71;99707.16;5020181;28;20125;-66
2022/12/08 06:39:45;;;;;;;3.55;1.55;;;;;;;5.13;97.89;99714.50;5014856;28;20037;-65
2022/12/08 06:44:56;;;;;;;1.88;1.52;;;;;;;5.01;97.92;99704.69;5002592;28;20033;-65
2022/12/08 06:47:22;;;;;;;1.42;1.33;;;;;;;4.99;97.56;99706.13;5013709;28;20048;-65
2022/12/08 06:49:47;;;;;;;2.25;1.30;;;;;;;4.94;98.09;99709.81;5003102;28;20574;-65
2022/12/08 06:52:13;;;;;;;0.98;0.90;;;;;;;5.07;97.89;99711.28;5004728;28;20035;-65
2022/12/08 06:54:39;;;;;;;1.00;0.93;;;;;;;5.03;98.11;99712.34;5008351;28;20053;-65
2022/12/08 06:57:04;;;;;;;2.55;1.35;;;;;;;5.04;97.73;99711.97;4999009;28;20024;-66
2022/12/08 06:59:30;;;;;;;1.30;1.20;;;;;;;5.04;97.21;99711.97;5018824;28;20030;-65
2022/12/08 07:01:56;;;;;;;2.35;1.77;;;;;;;4.95;97.83;99713.25;4998311;28;20053;-66
2022/12/08 07:04:22;;;;;;;1.13;1.02;;;;;;;5.03;97.69;99715.00;4997757;28;20434;-66
2022/12/08 07:06:48;;;;;;;1.50;1.27;;;;;;;5.06;97.97;99724.97;5019201;28;20042;-66
2022/12/08 07:09:14;;;;;;;2.50;1.58;;;;;;;5.03;97.28;99731.00;5023437;28;20108;-66
2022/12/08 07:11:39;;;;;;;2.83;1.23;;;;;;;5.07;97.15;99721.97;5006737;28;20113;-66
2022/12/08 07:14:07;;;;;;;3.13;1.50;;;;;;;5.01;97.18;99730.56;5019153;28;20026;-66
2022/12/08 07:16:32;;;;;;;3.45;1.27;;;;;;;4.97;97.61;99725.13;5006900;28;20478;-66
2022/12/08 07:18:58;;;;;;;1.80;1.67;;;;;;;4.93;97.16;99734.94;5008846;28;20073;-66
2022/12/08 07:21:24;;;;;;;1.92;1.75;;;;;;;4.95;97.53;99735.38;5005569;28;20025;-67
2022/12/08 07:23:50;;;;;;;2.42;1.63;;;;;;;4.87;98.18;99746.94;5017987;28;20045;-66
2022/12/08 07:26:15;;;;;;;2.13;1.42;;;;;;;4.82;98.19;99736.50;5009766;28;20084;-67
2022/12/08 07:28:41;;;;;;;2.47;2.05;;;;;;;4.73;98.31;99727.88;5009464;28;20078;-66
2022/12/08 07:31:16;;;;;;;4.10;1.90;;;;;;;4.81;98.69;99734.97;5013260;28;20034;-66
2022/12/08 07:33:42;;;;;;;3.38;1.92;;;;;;;4.90;98.09;99734.81;5026717;28;20034;-67
2022/12/08 07:36:08;;;;;;;2.85;1.83;;;;;;;4.92;98.02;99727.25;5017051;28;20550;-67
2022/12/08 07:38:33;;;;;;;4.60;1.70;;;;;;;4.93;97.79;99734.16;5012135;28;20535;-67
2022/12/08 07:40:59;;;;;;;3.10;1.88;;;;;;;4.89;98.24;99742.06;5001924;28;20037;-67
2022/12/08 07:43:25;;;;;;;2.65;1.80;;;;;;;4.88;97.53;99740.50;5005702;28;20458;-67
2022/12/08 07:45:51;;;;;;;3.17;2.38;;;;;;;4.94;97.71;99735.69;5003746;28;20062;-66
2022/12/08 07:48:17;;;;;;;3.70;2.08;;;;;;;4.98;98.23;99733.91;5015253;28;20034;-66
2022/12/08 07:50:43;;;;;;;3.65;1.92;;;;;;;4.92;97.56;99728.03;5006011;28;20045;-66
2022/12/08 07:53:09;;;;;;;2.65;1.90;;;;;;;4.77;97.56;99720.75;5019638;28;20061;-67
2022/12/08 07:55:39;;;;;;;3.35;1.80;;;;;;;4.69;97.64;99724.34;5012338;28;20086;-66
2022/12/08 07:58:05;;;;;;;3.08;2.05;;;;;;;4.70;98.00;99725.91;5010812;28;20127;-67
2022/12/08 08:00:31;;;;;;;3.35;2.00;;;;;;;4.66;98.38;99726.91;5000468;28;20041;-67
2022/12/08 08:02:56;;;;;;;1.50;1.30;;;;;;;4.62;97.53;99734.03;5012653;28;20399;-66
2022/12/08 08:05:22;;;;;;;1.65;1.45;;;;;;;4.71;97.98;99738.09;5011501;28;20038;-66
2022/12/08 08:07:47;;;;;;;2.58;1.85;;;;;;;4.70;98.16;99733.13;4992531;28;20041;-66
2022/12/08 08:10:13;;;;;;;2.38;1.48;;;;;;;4.73;97.54;99737.75;5008387;28;20092;-67
2022/12/08 08:12:39;;;;;;;1.92;1.73;;;;;;;4.76;97.67;99729.88;5010036;28;20044;-67
2022/12/08 08:15:06;;;;;;;4.85;2.53;;;;;;;4.78;97.92;99732.97;5018378;28;20033;-66
2022/12/08 08:17:33;;;;;;;5.95;2.20;;;;;;;4.76;97.56;99750.44;5000300;28;20030;-66
2022/12/08 08:19:59;;;;;;;2.88;1.92;;;;;;;4.79;97.79;99737.19;4998574;28;20030;-67
2022/12/08 08:22:25;;;;;;;3.63;2.00;;;;;;;4.83;97.80;99751.41;4994424;28;20042;-67
2022/12/08 08:24:51;;;;;;;3.20;1.98;;;;;;;4.80;97.89;99749.41;4996129;28;20030;-66
2022/12/08 08:27:17;;;;;;;2.47;1.40;;;;;;;4.64;98.54;99745.13;5007352;28;20138;-65
2022/12/08 08:29:42;;;;;;;4.32;2.28;;;;;;;4.69;99.29;99748.34;5010418;28;20038;-66
2022/12/08 08:32:08;;;;;;;2.30;1.48;;;;;;;4.73;99.52;99757.22;4991921;28;20092;-66
2022/12/08 08:34:33;;;;;;;5.13;2.35;;;;;;;4.68;99.44;99749.47;4993866;28;20384;-67
2022/12/08 08:36:59;;;;;;;4.18;2.33;;;;;;;4.77;99.20;99749.31;5008648;28;20030;-66
2022/12/08 08:39:24;;;;;;;3.03;1.77;;;;;;;4.90;99.61;99754.25;5006680;28;20034;-66
2022/12/08 08:41:50;;;;;;;3.67;2.38;;;;;;;4.91;99.13;99752.38;4995523;28;20030;-66
2022/12/08 08:44:15;;;;;;;2.20;1.50;;;;;;;4.97;98.78;99757.16;5012964;28;20496;-66
2022/12/08 08:46:41;;;;;;;3.28;2.15;;;;;;;5.01;98.92;99749.25;5012184;28;20042;-66
2022/12/08 08:49:06;;;;;;;2.90;1.92;;;;;;;5.10;98.41;99760.53;4997273;28;20045;-66
2022/12/08 08:51:32;;;;;;;3.58;2.05;;;;;;;4.98;97.82;99756.03;5014260;28;20046;-66
2022/12/08 08:53:58;;;;;;;3.15;2.05;;;;;;;5.00;98.84;99755.69;4997764;28;20034;-67
2022/12/08 08:56:24;;;;;;;3.92;2.55;;;;;;;5.04;98.38;99756.56;5011147;28;20109;-66
2022/12/08 08:58:51;;;;;;;3.15;1.92;;;;;;;5.09;98.46;99754.41;5009773;28;20041;-66
2022/12/08 09:01:19;;;;;;;1.55;1.35;;;;;;;5.08;97.74;99747.53;4999845;28;20074;-66
2022/12/08 09:03:46;;;;;;;3.67;2.15;;;;;;;5.04;97.84;99757.34;5010759;28;20036;-66
2022/12/08 09:06:13;;;;;;;3.63;1.60;;;;;;;4.94;98.74;99763.16;5012313;28;20037;-67
2022/12/08 09:08:40;;;;;;;2.55;2.20;;;;;;;4.97;98.12;99751.81;5011190;28;20034;-67
2022/12/08 09:11:05;;;;;;;2.13;1.65;;;;;;;5.04;98.44;99759.22;5015908;28;20049;-67
2022/12/08 09:13:31;;;;;;;3.95;2.30;;;;;;;4.86;98.26;99753.38;5009547;28;20033;-66
2022/12/08 09:15:58;;;;;;;3.55;2.17;;;;;;;4.93;98.98;99752.81;4992181;28;20102;-67
2022/12/08 09:18:24;;;;;;;5.80;2.90;;;;;;;4.90;99.30;99756.94;4995787;28;20397;-67
2022/12/08 09:20:49;;;;;;;4.82;2.40;;;;;;;4.77;99.41;99760.75;5013317;28;20088;-66
2022/12/08 09:23:15;;;;;;;2.85;2.28;;;;;;;4.76;99.35;99756.56;5008055;28;20037;-66
2022/12/08 09:25:43;;;;;;;3.03;2.00;;;;;;;4.79;99.15;99753.19;5012673;28;20508;-67
2022/12/08 09:28:09;;;;;;;4.50;2.40;;;;;;;4.81;99.68;99753.63;4997637;28;20038;-65
2022/12/08 09:30:34;;;;;;;4.93;2.60;;;;;;;4.85;99.82;99759.84;5005768;28;20026;-67
2022/12/08 09:33:00;;;;;;;3.65;2.45;;;;;;;4.99;98.98;99749.59;5010846;28;20022;-67
2022/12/08 09:35:25;;;;;;;2.88;2.17;;;;;;;4.99;98.54;99754.13;4991591;28;20061;-67
2022/12/08 09:37:51;;;;;;;4.85;2.75;;;;;;;5.06;99.33;99752.44;5004683;28;20115;-66
2022/12/08 09:40:20;;;;;;;4.88;2.78;;;;;;;5.03;98.98;99763.00;5030799;28;20099;-66
2022/12/08 09:43:16;;;;;;;5.38;2.65;;;;;;;5.04;98.85;99756.56;5019664;28;20053;-65
2022/12/08 09:45:43;;;;;;;3.97;2.65;;;;;;;4.81;97.95;99755.53;5030784;28;20045;-65
2022/12/08 09:48:17;;;;;;;4.00;2.75;;;;;;;4.81;98.39;99758.97;5031216;28;20033;-66
2022/12/08 09:50:56;;;;;;;3.67;2.10;;;;;;;4.90;98.03;99756.16;5026529;28;20122;-66
2022/12/08 09:53:25;;;;;;;3.08;2.25;;;;;;;4.83;97.76;99756.75;5018787;28;20097;-65
2022/12/08 09:55:55;;;;;;;3.78;2.35;;;;;;;4.80;98.17;99762.75;5033530;28;20444;-66
2022/12/08 09:58:26;;;;;;;2.75;2.05;;;;;;;4.91;98.07;99771.84;5014896;28;20099;-65
2022/12/08 10:00:52;;;;;;;4.00;2.45;;;;;;;4.84;97.38;99773.53;5025794;28;20038;-65
2022/12/08 10:03:26;;;;;;;2.58;1.98;;;;;;;4.77;97.42;99768.75;5030752;28;20041;-66
2022/12/08 10:06:14;;;;;;;4.07;2.53;;;;;;;4.86;97.34;99772.06;5013661;28;20045;-65
2022/12/08 10:09:10;;;;;;;5.18;2.88;;;;;;;4.77;96.77;99768.75;4993313;28;20042;-65
2022/12/08 10:12:01;;;;;;;4.60;2.65;;;;;;;4.67;97.17;99766.56;5005073;28;20042;-66
2022/12/08 10:14:46;;;;;;;2.53;1.85;;;;;;;4.69;97.62;99766.22;4997089;28;20041;-66
2022/12/08 10:17:20;;;;;;;6.00;2.72;;;;;;;4.79;97.15;99771.09;5002479;28;20100;-66
2022/12/08 10:19:47;;;;;;;3.20;2.63;;;;;;;4.69;97.35;99772.31;5007735;28;20037;-65
2022/12/08 10:22:30;;;;;;;3.65;2.03;;;;;;;4.64;97.30;99769.13;4999606;28;20491;-66
2022/12/08 10:25:45;;;;;;;4.68;2.53;;;;;;;4.58;97.58;99766.72;5003016;28;20026;-67
2022/12/08 10:28:11;;;;;;;4.80;2.50;;;;;;;4.53;97.61;99766.13;5007327;28;20054;-65
2022/12/08 10:30:37;;;;;;;4.40;3.15;;;;;;;4.60;97.42;99755.69;5007620;28;20049;-66
2022/12/08 10:33:03;;;;;;;4.18;2.50;;;;;;;4.83;97.67;99772.75;5027426;28;20034;-66
2022/12/08 10:35:53;;;;;;;3.03;2.03;;;;;;;4.92;96.55;99769.91;5019124;28;20372;-66
2022/12/08 10:38:39;;;;;;;3.15;2.58;;;;;;;4.98;96.83;99769.34;5028303;28;20490;-66
2022/12/08 10:41:10;;;;;;;4.55;2.63;;;;;;;5.08;96.58;99778.78;5022575;28;20034;-66
2022/12/08 10:43:57;;;;;;;;;;;;;;;5.09;96.05;99778.41;5035216;28;20030;-66
2022/12/08 10:46:25;;;;;;;3.15;2.28;;;;;;;5.12;96.55;99780.44;5016057;28;19917;-65
2022/12/08 10:49:01;;;;;;;5.05;1.88;;;;;;;5.12;96.21;99775.09;5014798;28;20018;-65
2022/12/08 10:51:28;;;;;;;3.65;1.73;;;;;;;5.06;96.40;99789.00;5013454;28;20036;-65
2022/12/08 10:53:55;;;;;;;3.80;2.03;;;;;;;5.08;95.78;99790.22;5021277;28;20048;-64
2022/12/08 10:56:25;;;;;;;3.72;1.95;;;;;;;5.20;95.54;99784.06;5027907;28;20120;-65
2022/12/08 10:59:14;;;;;;;3.55;2.25;;;;;;;5.21;95.56;99781.03;5011926;28;20032;-64
2022/12/08 11:01:41;;;;;;;2.90;2.03;;;;;;;5.20;95.15;99782.19;5014475;28;20490;-65
2022/12/08 11:04:37;;;;;;;3.75;1.63;;;;;;;5.17;95.79;99771.38;5034579;28;20064;-66
2022/12/08 11:07:10;;;;;;;1.88;1.27;;;;;;;5.20;95.64;99784.06;5026305;28;20174;-65
2022/12/08 11:09:45;;;;;;;1.73;1.17;;;;;;;5.07;95.56;99785.22;5049809;28;20056;-66
2022/12/08 11:12:14;;;;;;;2.13;1.50;;;;;;;5.15;95.48;99784.31;5020150;28;20410;-66
2022/12/08 11:14:42;;;;;;;3.40;1.67;;;;;;;5.24;95.15;99783.06;5010301;28;20080;-66
2022/12/08 11:17:13;;;;;;;3.00;1.30;;;;;;;5.22;95.59;99777.28;5015754;28;20172;-66
2022/12/08 11:19:44;;;;;;;3.60;1.60;;;;;;;5.01;94.56;99783.91;5011775;28;20274;-65
2022/12/08 11:22:31;;;;;;;2.47;1.52;;;;;;;5.15;95.98;99795.75;5006823;28;20034;-66
2022/12/08 11:25:24;;;;;;;1.65;1.30;;;;;;;5.23;95.16;99784.16;5026224;28;20029;-66
2022/12/08 11:27:52;;;;;;;1.35;1.17;;;;;;;5.24;95.25;99782.25;5008093;28;20052;-66
2022/12/08 11:30:35;;;;;;;1.35;1.25;;;;;;;5.23;95.00;99788.72;5009218;28;20482;-66
2022/12/08 11:33:23;;;;;;;2.28;1.70;;;;;;;5.27;94.83;99789.59;5010054;28;20037;-66
2022/12/08 11:35:55;;;;;;;2.72;1.45;;;;;;;5.29;95.22;99785.47;5026630;28;20120;-66
2022/12/08 11:38:23;;;;;;;1.55;1.45;;;;;;;5.34;95.01;99787.88;5009817;28;20159;-65
2022/12/08 11:41:05;;;;;;;4.60;1.70;;;;;;;5.36;95.29;99784.88;5016144;28;20037;-66
2022/12/08 11:43:33;;;;;;;3.47;1.70;;;;;;;5.30;95.43;99789.66;5001794;28;20049;-65
2022/12/08 11:46:09;;;;;;;3.35;1.60;;;;;;;5.34;94.74;99790.53;5022974;28;20052;-66
2022/12/08 11:48:38;;;;;;;3.47;1.90;;;;;;;5.38;94.64;99783.41;5021652;28;20029;-65
2022/12/08 11:51:31;;;;;;;2.78;1.60;;;;;;;5.43;94.54;99779.72;5015577;28;20500;-65
2022/12/08 11:54:21;;;;;;;3.05;1.75;;;;;;;5.48;94.62;99782.91;5000663;28;20045;-65
2022/12/08 11:56:58;;;;;;;2.40;1.73;;;;;;;5.55;95.31;99786.91;5016284;28;20387;-65
2022/12/08 11:59:40;;;;;;;4.20;2.08;;;;;;;5.58;95.03;99783.53;5008969;28;20022;-66